createdAt,value
2023-03-27T00:00:16.616Z,99.99
2023-03-27T00:01:16.475Z,99.99
2023-03-27T00:02:16.447Z,99.99
2023-03-27T00:03:16.469Z,99.99
2023-03-27T00:04:17.995Z,99.99
2023-03-27T00:05:16.361Z,99.99
2023-03-27T00:06:16.424Z,99.99
2023-03-27T00:07:16.354Z,99.99
2023-03-27T00:08:16.339Z,99.99
2023-03-27T00:09:16.306Z,99.99
2023-03-27T00:10:16.310Z,99.99
2023-03-27T00:11:16.307Z,99.99
2023-03-27T00:12:16.318Z,99.99
2023-03-27T00:13:16.265Z,99.99
2023-03-27T00:14:16.273Z,99.99
2023-03-27T00:15:16.242Z,99.99
2023-03-27T00:16:16.336Z,99.99
2023-03-27T00:17:16.220Z,99.99
2023-03-27T00:18:16.222Z,99.99
2023-03-27T00:19:16.222Z,99.99
2023-03-27T00:20:16.209Z,99.99
2023-03-27T00:21:16.237Z,99.99
2023-03-27T00:22:16.183Z,99.99
2023-03-27T00:23:16.175Z,99.99
2023-03-27T00:24:16.168Z,99.99
2023-03-27T00:25:16.152Z,99.99
2023-03-27T00:26:16.140Z,99.99
2023-03-27T00:27:16.112Z,99.99
2023-03-27T00:28:16.124Z,99.99
2023-03-27T00:29:16.117Z,99.99
2023-03-27T00:30:16.104Z,99.99
2023-03-27T00:31:16.148Z,99.99
2023-03-27T00:32:16.065Z,99.99
2023-03-27T00:33:16.055Z,99.99
2023-03-27T00:34:16.067Z,99.99
2023-03-27T00:35:16.087Z,99.99
2023-03-27T00:36:16.039Z,99.99
2023-03-27T00:37:16.016Z,99.99
2023-03-27T00:38:16.028Z,99.99
2023-03-27T00:39:15.984Z,99.99
2023-03-27T00:40:15.981Z,99.99
2023-03-27T00:41:16.048Z,99.99
2023-03-27T00:42:15.960Z,99.99
2023-03-27T00:43:15.951Z,99.80
2023-03-27T00:44:15.937Z,99.60
2023-03-27T00:45:15.926Z,99.18
2023-03-27T00:46:16.059Z,98.88
2023-03-27T00:47:15.917Z,98.77
2023-03-27T00:48:15.925Z,98.05
2023-03-27T00:49:15.920Z,97.53
2023-03-27T00:50:15.879Z,96.61
2023-03-27T00:51:15.900Z,96.41
2023-03-27T00:52:15.878Z,96.61
2023-03-27T00:53:15.859Z,96.09
2023-03-27T00:54:15.837Z,95.27
2023-03-27T00:55:15.836Z,94.24
2023-03-27T00:56:15.807Z,94.34
2023-03-27T00:57:15.827Z,94.13
2023-03-27T00:58:15.797Z,94.34
2023-03-27T00:59:15.790Z,94.24
2023-03-27T01:00:15.800Z,94.55
2023-03-27T01:01:15.783Z,94.55
2023-03-27T01:02:15.826Z,94.34
2023-03-27T01:03:15.812Z,94.34
2023-03-27T01:04:15.733Z,94.76
2023-03-27T01:05:15.701Z,94.96
2023-03-27T01:06:15.699Z,95.06
2023-03-27T01:07:15.694Z,95.06
2023-03-27T01:08:15.705Z,95.06
2023-03-27T01:09:20.550Z,94.96
2023-03-27T01:10:16.660Z,94.85
2023-03-27T01:11:15.653Z,95.17
2023-03-27T01:12:15.633Z,95.17
2023-03-27T01:13:15.646Z,94.65
2023-03-27T01:14:15.623Z,94.76
2023-03-27T01:15:15.605Z,94.76
2023-03-27T01:16:15.632Z,94.55
2023-03-27T01:17:15.595Z,94.34
2023-03-27T01:18:15.580Z,94.65
2023-03-27T01:19:15.549Z,94.76
2023-03-27T01:20:15.558Z,94.96
2023-03-27T01:21:15.540Z,95.06
2023-03-27T01:22:15.545Z,95.17
2023-03-27T01:23:15.527Z,95.27
2023-03-27T01:24:16.520Z,95.17
2023-03-27T01:25:15.484Z,95.27
2023-03-27T01:26:15.494Z,95.27
2023-03-27T01:27:15.476Z,95.17
2023-03-27T01:28:15.492Z,94.85
2023-03-27T01:29:15.440Z,94.96
2023-03-27T01:30:15.435Z,94.85
2023-03-27T01:31:15.581Z,94.65
2023-03-27T01:32:15.426Z,94.65
2023-03-27T01:33:15.432Z,94.34
2023-03-27T01:34:15.428Z,94.24
2023-03-27T01:35:15.423Z,94.13
2023-03-27T01:36:15.410Z,93.77
2023-03-27T01:37:15.362Z,93.25
2023-03-27T01:38:15.371Z,93.46
2023-03-27T01:39:15.346Z,93.66
2023-03-27T01:40:15.361Z,93.05
2023-03-27T01:41:15.355Z,92.94
2023-03-27T01:42:15.307Z,92.94
2023-03-27T01:43:15.319Z,92.94
2023-03-27T01:44:15.288Z,92.84
2023-03-27T01:45:15.292Z,92.84
2023-03-27T01:46:15.334Z,93.25
2023-03-27T01:47:15.268Z,93.87
2023-03-27T01:48:15.243Z,93.98
2023-03-27T01:49:15.224Z,94.18
2023-03-27T01:50:15.216Z,93.91
2023-03-27T01:51:15.201Z,94.43
2023-03-27T01:52:15.200Z,94.43
2023-03-27T01:53:15.168Z,94.43
2023-03-27T01:54:15.179Z,94.74
2023-03-27T01:55:15.176Z,94.95
2023-03-27T01:56:15.149Z,94.95
2023-03-27T01:57:15.252Z,94.84
2023-03-27T01:58:15.137Z,94.74
2023-03-27T01:59:15.105Z,94.84
2023-03-27T02:00:18.288Z,94.12
2023-03-27T02:01:15.123Z,93.91
2023-03-27T02:02:15.090Z,94.06
2023-03-27T02:03:15.089Z,94.27
2023-03-27T02:04:15.058Z,94.57
2023-03-27T02:05:15.094Z,94.47
2023-03-27T02:06:15.038Z,94.47
2023-03-27T02:07:15.037Z,94.37
2023-03-27T02:08:15.022Z,94.17
2023-03-27T02:09:15.006Z,94.06
2023-03-27T02:10:14.991Z,94.47
2023-03-27T02:11:15.041Z,94.68
2023-03-27T02:12:14.978Z,94.68
2023-03-27T02:13:14.984Z,94.57
2023-03-27T02:14:14.959Z,94.27
2023-03-27T02:15:23.862Z,94.47
2023-03-27T02:16:15.996Z,94.68
2023-03-27T02:17:15.289Z,94.57
2023-03-27T02:18:15.041Z,94.68
2023-03-27T02:19:14.897Z,95.09
2023-03-27T02:20:14.888Z,95.50
2023-03-27T02:21:14.889Z,95.71
2023-03-27T02:22:14.885Z,95.40
2023-03-27T02:23:14.854Z,95.50
2023-03-27T02:24:14.852Z,95.71
2023-03-27T02:25:14.845Z,95.50
2023-03-27T02:26:14.830Z,95.81
2023-03-27T02:27:14.841Z,95.65
2023-03-27T02:28:14.830Z,95.34
2023-03-27T02:29:14.802Z,95.14
2023-03-27T02:30:14.781Z,95.34
2023-03-27T02:31:32.218Z,95.55
2023-03-27T02:32:15.835Z,94.72
2023-03-27T02:33:14.962Z,94.31
2023-03-27T02:34:14.765Z,94.62
2023-03-27T02:35:14.724Z,94.35
2023-03-27T02:36:14.713Z,94.35
2023-03-27T02:37:14.722Z,94.46
2023-03-27T02:38:14.686Z,94.97
2023-03-27T02:39:14.741Z,94.67
2023-03-27T02:40:14.723Z,94.77
2023-03-27T02:41:14.713Z,94.87
2023-03-27T02:42:14.701Z,94.56
2023-03-27T02:43:14.713Z,94.35
2023-03-27T02:44:14.634Z,94.56
2023-03-27T02:45:14.617Z,94.87
2023-03-27T02:46:14.740Z,94.19
2023-03-27T02:47:14.596Z,94.29
2023-03-27T02:48:14.604Z,94.60
2023-03-27T02:49:14.588Z,94.71
2023-03-27T02:50:14.575Z,94.40
2023-03-27T02:51:14.567Z,93.78
2023-03-27T02:52:14.559Z,93.16
2023-03-27T02:53:14.543Z,92.54
2023-03-27T02:54:14.540Z,92.33
2023-03-27T02:55:14.517Z,92.54
2023-03-27T02:56:14.505Z,93.05
2023-03-27T02:57:14.573Z,93.47
2023-03-27T02:58:14.500Z,93.47
2023-03-27T02:59:14.489Z,93.16
2023-03-27T03:00:14.465Z,93.05
2023-03-27T03:01:14.496Z,92.85
2023-03-27T03:02:14.510Z,93.20
2023-03-27T03:03:14.526Z,94.03
2023-03-27T03:04:14.439Z,93.72
2023-03-27T03:05:14.416Z,93.62
2023-03-27T03:06:14.407Z,94.03
2023-03-27T03:07:14.423Z,94.34
2023-03-27T03:08:14.395Z,94.34
2023-03-27T03:09:14.380Z,94.23
2023-03-27T03:10:14.367Z,93.62
2023-03-27T03:11:14.363Z,93.41
2023-03-27T03:12:14.334Z,93.93
2023-03-27T03:13:14.342Z,94.44
2023-03-27T03:14:14.350Z,94.13
2023-03-27T03:15:14.304Z,94.03
2023-03-27T03:16:14.310Z,93.72
2023-03-27T03:17:14.305Z,92.68
2023-03-27T03:18:14.288Z,92.58
2023-03-27T03:19:14.305Z,92.27
2023-03-27T03:20:14.259Z,92.48
2023-03-27T03:21:14.249Z,92.89
2023-03-27T03:22:14.234Z,92.58
2023-03-27T03:23:14.230Z,92.17
2023-03-27T03:24:14.287Z,91.96
2023-03-27T03:25:14.201Z,92.17
2023-03-27T03:26:14.201Z,91.65
2023-03-27T03:27:14.234Z,91.49
2023-03-27T03:28:14.183Z,92.00
2023-03-27T03:29:14.186Z,91.90
2023-03-27T03:30:16.783Z,91.17
2023-03-27T03:31:14.175Z,90.66
2023-03-27T03:32:14.136Z,90.56
2023-03-27T03:33:14.125Z,90.56
2023-03-27T03:34:14.111Z,91.49
2023-03-27T03:35:14.084Z,91.90
2023-03-27T03:36:14.072Z,92.42
2023-03-27T03:37:14.068Z,92.32
2023-03-27T03:38:14.054Z,92.00
2023-03-27T03:39:14.060Z,91.59
2023-03-27T03:40:14.037Z,91.49
2023-03-27T03:41:14.261Z,91.17
2023-03-27T03:42:22.558Z,91.38
2023-03-27T03:43:15.137Z,91.28
2023-03-27T03:44:14.019Z,90.87
2023-03-27T03:45:13.982Z,90.77
2023-03-27T03:46:14.771Z,90.97
2023-03-27T03:47:13.982Z,90.87
2023-03-27T03:48:13.946Z,90.77
2023-03-27T03:49:13.951Z,91.07
2023-03-27T03:50:13.933Z,91.07
2023-03-27T03:51:13.924Z,91.17
2023-03-27T03:52:13.922Z,90.29
2023-03-27T03:53:13.937Z,90.19
2023-03-27T03:54:13.900Z,90.70
2023-03-27T03:55:13.877Z,90.60
2023-03-27T03:56:13.867Z,90.60
2023-03-27T03:57:13.902Z,89.87
2023-03-27T03:58:13.844Z,89.15
2023-03-27T03:59:13.850Z,88.74
2023-03-27T04:00:13.821Z,88.74
2023-03-27T04:01:13.807Z,88.22
2023-03-27T04:02:13.890Z,88.53
2023-03-27T04:03:13.859Z,88.22
2023-03-27T04:04:13.779Z,88.46
2023-03-27T04:05:13.768Z,88.84
2023-03-27T04:06:13.783Z,89.67
2023-03-27T04:07:13.749Z,89.46
2023-03-27T04:08:13.734Z,89.56
2023-03-27T04:09:13.742Z,90.08
2023-03-27T04:10:13.718Z,90.29
2023-03-27T04:11:13.726Z,90.39
2023-03-27T04:12:13.686Z,90.39
2023-03-27T04:13:13.691Z,90.95
2023-03-27T04:14:13.674Z,90.84
2023-03-27T04:15:13.687Z,90.84
2023-03-27T04:16:13.675Z,90.84
2023-03-27T04:17:13.652Z,90.12
2023-03-27T04:18:13.725Z,89.61
2023-03-27T04:19:13.622Z,89.54
2023-03-27T04:20:13.612Z,89.54
2023-03-27T04:21:13.603Z,89.54
2023-03-27T04:22:13.586Z,89.34
2023-03-27T04:23:13.570Z,89.54
2023-03-27T04:24:13.554Z,89.65
2023-03-27T04:25:13.580Z,89.44
2023-03-27T04:26:13.592Z,89.54
2023-03-27T04:27:13.534Z,88.92
2023-03-27T04:28:13.533Z,88.40
2023-03-27T04:29:13.540Z,88.51
2023-03-27T04:30:13.494Z,87.57
2023-03-27T04:31:13.507Z,88.09
2023-03-27T04:32:14.205Z,87.62
2023-03-27T04:33:13.506Z,87.62
2023-03-27T04:34:14.165Z,87.93
2023-03-27T04:35:13.493Z,87.93
2023-03-27T04:36:14.212Z,87.72
2023-03-27T04:37:13.463Z,87.10
2023-03-27T04:38:14.155Z,86.89
2023-03-27T04:39:13.470Z,87.30
2023-03-27T04:40:16.552Z,87.30
2023-03-27T04:41:13.390Z,87.10
2023-03-27T04:42:13.501Z,87.41
2023-03-27T04:43:13.810Z,87.14
2023-03-27T04:44:14.368Z,86.83
2023-03-27T04:45:13.366Z,87.24
2023-03-27T04:46:13.457Z,87.55
2023-03-27T04:47:13.522Z,87.87
2023-03-27T04:48:13.314Z,87.14
2023-03-27T04:49:13.320Z,86.83
2023-03-27T04:50:13.277Z,86.41
2023-03-27T04:51:13.301Z,86.10
2023-03-27T04:52:13.269Z,86.31
2023-03-27T04:53:13.270Z,86.31
2023-03-27T04:54:13.240Z,86.62
2023-03-27T04:55:13.405Z,86.10
2023-03-27T04:56:13.235Z,86.21
2023-03-27T04:57:13.282Z,86.41
2023-03-27T04:58:13.213Z,86.62
2023-03-27T04:59:13.184Z,85.69
2023-03-27T05:00:13.210Z,85.63
2023-03-27T05:01:13.260Z,85.83
2023-03-27T05:02:13.183Z,85.73
2023-03-27T05:03:13.217Z,85.42
2023-03-27T05:04:13.139Z,84.80
2023-03-27T05:05:13.161Z,84.69
2023-03-27T05:06:13.122Z,85.31
2023-03-27T05:07:13.136Z,85.31
2023-03-27T05:08:13.096Z,85.46
2023-03-27T05:09:13.106Z,85.73
2023-03-27T05:10:13.076Z,85.21
2023-03-27T05:11:13.078Z,85.42
2023-03-27T05:12:13.056Z,85.83
2023-03-27T05:13:13.042Z,86.04
2023-03-27T05:14:13.012Z,85.73
2023-03-27T05:15:13.024Z,85.42
2023-03-27T05:16:13.016Z,85.42
2023-03-27T05:17:13.000Z,85.21
2023-03-27T05:18:12.988Z,85.31
2023-03-27T05:19:12.979Z,85.31
2023-03-27T05:20:12.969Z,85.00
2023-03-27T05:21:12.967Z,84.69
2023-03-27T05:22:12.943Z,84.59
2023-03-27T05:23:12.927Z,84.48
2023-03-27T05:24:12.912Z,84.69
2023-03-27T05:25:12.929Z,84.28
2023-03-27T05:26:12.922Z,84.21
2023-03-27T05:27:12.892Z,84.73
2023-03-27T05:28:12.897Z,84.00
2023-03-27T05:29:12.857Z,83.69
2023-03-27T05:30:12.858Z,83.80
2023-03-27T05:31:12.959Z,83.90
2023-03-27T05:32:12.845Z,84.00
2023-03-27T05:33:12.834Z,83.69
2023-03-27T05:34:12.808Z,83.90
2023-03-27T05:35:12.827Z,84.31
2023-03-27T05:36:12.792Z,84.11
2023-03-27T05:37:12.783Z,83.90
2023-03-27T05:38:12.777Z,83.38
2023-03-27T05:39:12.752Z,83.28
2023-03-27T05:40:12.741Z,83.38
2023-03-27T05:41:12.782Z,83.38
2023-03-27T05:42:12.735Z,82.86
2023-03-27T05:43:12.735Z,83.28
2023-03-27T05:44:12.693Z,83.07
2023-03-27T05:45:12.701Z,83.07
2023-03-27T05:46:12.703Z,82.86
2023-03-27T05:47:12.664Z,83.17
2023-03-27T05:48:12.736Z,83.28
2023-03-27T05:49:12.660Z,83.17
2023-03-27T05:50:12.739Z,82.86
2023-03-27T05:51:12.666Z,83.11
2023-03-27T05:52:12.611Z,83.32
2023-03-27T05:53:12.773Z,83.48
2023-03-27T05:54:12.597Z,83.42
2023-03-27T05:55:12.584Z,82.90
2023-03-27T05:56:12.603Z,83.22
2023-03-27T05:57:12.602Z,83.01
2023-03-27T05:58:12.682Z,83.22
2023-03-27T05:59:12.553Z,83.11
2023-03-27T06:00:12.530Z,83.11
2023-03-27T06:01:12.531Z,82.80
2023-03-27T06:02:12.539Z,83.11
2023-03-27T06:03:13.009Z,82.59
2023-03-27T06:04:12.529Z,82.49
2023-03-27T06:05:12.476Z,81.97
2023-03-27T06:06:12.470Z,82.39
2023-03-27T06:07:12.472Z,82.70
2023-03-27T06:08:12.452Z,82.39
2023-03-27T06:09:12.461Z,82.39
2023-03-27T06:10:13.354Z,82.80
2023-03-27T06:11:12.431Z,82.97
2023-03-27T06:12:12.422Z,82.24
2023-03-27T06:13:12.404Z,82.03
2023-03-27T06:14:12.389Z,82.03
2023-03-27T06:15:12.373Z,81.93
2023-03-27T06:16:12.417Z,81.51
2023-03-27T06:17:12.376Z,81.62
2023-03-27T06:18:12.392Z,80.99
2023-03-27T06:19:12.338Z,81.51
2023-03-27T06:20:12.397Z,81.41
2023-03-27T06:21:12.342Z,81.20
2023-03-27T06:22:12.298Z,81.30
2023-03-27T06:23:12.295Z,81.20
2023-03-27T06:24:12.285Z,81.30
2023-03-27T06:25:12.275Z,81.72
2023-03-27T06:26:12.275Z,81.10
2023-03-27T06:27:12.244Z,81.51
2023-03-27T06:28:12.237Z,80.99
2023-03-27T06:29:12.266Z,80.99
2023-03-27T06:30:12.240Z,81.35
2023-03-27T06:31:12.261Z,81.51
2023-03-27T06:32:12.197Z,81.62
2023-03-27T06:33:12.252Z,81.62
2023-03-27T06:34:12.177Z,82.14
2023-03-27T06:35:12.157Z,81.72
2023-03-27T06:36:12.188Z,81.72
2023-03-27T06:37:12.143Z,81.10
2023-03-27T06:38:12.146Z,81.30
2023-03-27T06:39:12.139Z,81.51
2023-03-27T06:40:12.176Z,81.30
2023-03-27T06:41:12.116Z,81.82
2023-03-27T06:42:12.113Z,81.20
2023-03-27T06:43:12.076Z,81.51
2023-03-27T06:44:12.065Z,81.51
2023-03-27T06:45:12.067Z,81.93
2023-03-27T06:46:12.088Z,82.14
2023-03-27T06:47:12.095Z,81.93
2023-03-27T06:48:16.931Z,81.93
2023-03-27T06:49:13.004Z,82.14
2023-03-27T06:50:12.011Z,82.03
2023-03-27T06:51:12.009Z,82.24
2023-03-27T06:52:11.999Z,81.68
2023-03-27T06:53:25.954Z,81.48
2023-03-27T06:54:12.965Z,81.16
2023-03-27T06:55:15.298Z,81.27
2023-03-27T06:56:11.949Z,81.16
2023-03-27T06:57:11.967Z,81.27
2023-03-27T06:58:11.917Z,81.27
2023-03-27T06:59:11.931Z,81.65
2023-03-27T07:00:11.902Z,80.71
2023-03-27T07:01:11.907Z,80.71
2023-03-27T07:02:11.958Z,79.99
2023-03-27T07:03:11.963Z,80.40
2023-03-27T07:04:11.881Z,80.82
2023-03-27T07:05:11.871Z,80.30
2023-03-27T07:06:11.843Z,80.19
2023-03-27T07:07:11.814Z,80.40
2023-03-27T07:08:22.333Z,79.88
2023-03-27T07:09:12.796Z,78.96
2023-03-27T07:10:11.794Z,79.58
2023-03-27T07:11:12.704Z,79.58
2023-03-27T07:12:11.766Z,79.06
2023-03-27T07:13:11.774Z,78.85
2023-03-27T07:14:11.763Z,79.27
2023-03-27T07:15:11.753Z,79.37
2023-03-27T07:16:11.756Z,79.68
2023-03-27T07:17:11.706Z,80.30
2023-03-27T07:18:11.730Z,79.58
2023-03-27T07:19:11.683Z,79.27
2023-03-27T07:20:11.675Z,79.74
2023-03-27T07:21:11.676Z,78.92
2023-03-27T07:22:11.650Z,79.23
2023-03-27T07:23:11.664Z,78.71
2023-03-27T07:24:11.765Z,78.71
2023-03-27T07:25:11.617Z,78.50
2023-03-27T07:26:11.620Z,77.98
2023-03-27T07:27:11.586Z,78.30
2023-03-27T07:28:11.600Z,78.50
2023-03-27T07:29:11.590Z,78.81
2023-03-27T07:30:11.570Z,77.57
2023-03-27T07:31:25.936Z,77.36
2023-03-27T07:33:11.600Z,77.40
2023-03-27T07:34:11.675Z,77.29
2023-03-27T07:35:11.513Z,78.33
2023-03-27T07:36:11.504Z,77.61
2023-03-27T07:37:11.492Z,77.29
2023-03-27T07:38:11.477Z,76.98
2023-03-27T07:39:11.485Z,78.02
2023-03-27T07:40:11.467Z,77.36
2023-03-27T07:41:11.487Z,77.15
2023-03-27T07:42:11.451Z,76.95
2023-03-27T07:43:11.436Z,78.19
2023-03-27T07:44:11.424Z,77.47
2023-03-27T07:45:11.410Z,76.84
2023-03-27T07:46:11.419Z,76.74
2023-03-27T07:47:11.406Z,76.29
2023-03-27T07:48:11.417Z,76.29
2023-03-27T07:49:11.353Z,76.40
2023-03-27T07:50:11.388Z,76.50
2023-03-27T07:51:14.167Z,76.91
2023-03-27T07:52:11.340Z,77.39
2023-03-27T07:53:33.571Z,75.95
2023-03-27T07:54:12.321Z,76.57
2023-03-27T07:55:11.309Z,74.91
2023-03-27T07:56:11.304Z,74.95
2023-03-27T07:57:11.343Z,74.43
2023-03-27T07:58:11.392Z,74.12
2023-03-27T07:59:11.261Z,74.95
2023-03-27T08:00:11.254Z,75.43
2023-03-27T08:01:11.273Z,75.43
2023-03-27T08:02:11.253Z,75.32
2023-03-27T08:03:11.481Z,75.22
2023-03-27T08:04:11.288Z,74.84
2023-03-27T08:05:11.372Z,74.63
2023-03-27T08:06:11.179Z,74.32
2023-03-27T08:07:11.174Z,74.74
2023-03-27T08:08:11.175Z,75.15
2023-03-27T08:09:11.168Z,74.74
2023-03-27T08:10:11.170Z,74.95
2023-03-27T08:11:23.051Z,75.36
2023-03-27T08:12:12.131Z,75.05
2023-03-27T08:13:11.110Z,74.74
2023-03-27T08:14:11.110Z,75.15
2023-03-27T08:15:11.096Z,75.78
2023-03-27T08:16:11.127Z,75.88
2023-03-27T08:17:16.081Z,73.19
2023-03-27T08:18:12.213Z,73.60
2023-03-27T08:19:11.038Z,72.98
2023-03-27T08:20:11.055Z,72.88
2023-03-27T08:21:11.038Z,74.22
2023-03-27T08:22:11.020Z,72.67
2023-03-27T08:23:11.014Z,72.36
2023-03-27T08:24:10.982Z,72.77
2023-03-27T08:25:10.976Z,74.43
2023-03-27T08:26:10.988Z,73.50
2023-03-27T08:27:10.949Z,72.88
2023-03-27T08:28:10.944Z,72.98
2023-03-27T08:29:10.936Z,72.05
2023-03-27T08:30:10.921Z,72.98
2023-03-27T08:31:10.966Z,72.36
2023-03-27T08:32:11.660Z,72.46
2023-03-27T08:33:10.925Z,73.08
2023-03-27T08:34:10.910Z,73.39
2023-03-27T08:35:10.872Z,73.39
2023-03-27T08:36:10.902Z,72.94
2023-03-27T08:37:10.856Z,72.53
2023-03-27T08:38:23.718Z,73.05
2023-03-27T08:39:11.821Z,72.94
2023-03-27T08:40:10.821Z,72.85
2023-03-27T08:41:10.793Z,72.43
2023-03-27T08:42:10.787Z,71.70
2023-03-27T08:43:10.789Z,72.22
2023-03-27T08:44:10.764Z,72.39
2023-03-27T08:45:10.766Z,71.78
2023-03-27T08:46:10.807Z,70.53
2023-03-27T08:47:10.732Z,70.22
2023-03-27T08:48:10.734Z,70.47
2023-03-27T08:49:10.732Z,71.05
2023-03-27T08:50:10.724Z,71.36
2023-03-27T08:51:10.692Z,70.32
2023-03-27T08:52:10.712Z,70.22
2023-03-27T08:53:10.679Z,70.22
2023-03-27T08:54:10.661Z,70.15
2023-03-27T08:55:10.647Z,70.95
2023-03-27T08:56:10.658Z,71.36
2023-03-27T08:57:10.690Z,71.05
2023-03-27T08:58:10.621Z,69.92
2023-03-27T08:59:10.613Z,69.92
2023-03-27T09:00:10.624Z,69.29
2023-03-27T09:01:10.619Z,69.71
2023-03-27T09:02:10.628Z,69.71
2023-03-27T09:03:10.714Z,69.29
2023-03-27T09:04:10.564Z,68.74
2023-03-27T09:05:10.538Z,68.85
2023-03-27T09:06:10.553Z,69.26
2023-03-27T09:07:10.545Z,69.78
2023-03-27T09:08:10.528Z,68.64
2023-03-27T09:09:10.504Z,67.09
2023-03-27T09:10:10.505Z,67.09
2023-03-27T09:11:10.487Z,67.91
2023-03-27T09:12:10.470Z,68.23
2023-03-27T09:13:10.490Z,68.82
2023-03-27T09:14:10.454Z,68.92
2023-03-27T09:15:10.448Z,69.33
2023-03-27T09:16:10.455Z,68.30
2023-03-27T09:17:10.430Z,67.88
2023-03-27T09:18:10.412Z,68.19
2023-03-27T09:19:10.392Z,67.99
2023-03-27T09:20:10.393Z,68.51
2023-03-27T09:21:10.372Z,68.51
2023-03-27T09:22:10.365Z,67.65
2023-03-27T09:23:10.349Z,67.24
2023-03-27T09:24:10.344Z,66.82
2023-03-27T09:25:10.334Z,66.00
2023-03-27T09:26:10.314Z,66.61
2023-03-27T09:27:10.327Z,66.82
2023-03-27T09:28:10.305Z,66.41
2023-03-27T09:29:10.311Z,66.41
2023-03-27T09:30:10.294Z,66.61
2023-03-27T09:31:10.328Z,67.03
2023-03-27T09:32:10.261Z,67.24
2023-03-27T09:33:10.300Z,67.13
2023-03-27T09:34:10.238Z,67.21
2023-03-27T09:35:10.222Z,66.58
2023-03-27T09:36:10.250Z,66.27
2023-03-27T09:37:10.199Z,66.17
2023-03-27T09:38:10.223Z,66.17
2023-03-27T09:39:10.206Z,66.48
2023-03-27T09:40:10.165Z,66.48
2023-03-27T09:41:10.166Z,66.51
2023-03-27T09:42:10.171Z,66.10
2023-03-27T09:43:10.176Z,66.72
2023-03-27T09:44:10.127Z,67.24
2023-03-27T09:45:10.117Z,66.58
2023-03-27T09:46:10.136Z,65.24
2023-03-27T09:47:10.138Z,65.24
2023-03-27T09:48:10.109Z,65.11
2023-03-27T09:49:10.082Z,64.80
2023-03-27T09:50:10.058Z,64.87
2023-03-27T09:51:10.079Z,64.87
2023-03-27T09:52:10.051Z,65.70
2023-03-27T09:53:10.043Z,66.01
2023-03-27T09:54:10.020Z,64.46
2023-03-27T09:55:10.047Z,64.04
2023-03-27T09:56:10.002Z,64.25
2023-03-27T09:57:10.041Z,64.56
2023-03-27T09:58:09.990Z,63.64
2023-03-27T09:59:10.012Z,63.53
2023-03-27T10:00:09.963Z,63.43
2023-03-27T10:01:10.032Z,63.01
2023-03-27T10:02:09.951Z,63.01
2023-03-27T10:03:09.972Z,62.92
2023-03-27T10:04:10.020Z,63.53
2023-03-27T10:05:09.903Z,63.74
2023-03-27T10:06:09.920Z,64.25
2023-03-27T10:07:09.907Z,63.81
2023-03-27T10:08:09.883Z,62.37
2023-03-27T10:09:09.876Z,61.54
2023-03-27T10:10:09.900Z,61.65
2023-03-27T10:11:09.843Z,62.99
2023-03-27T10:12:09.897Z,61.82
2023-03-27T10:13:09.828Z,61.93
2023-03-27T10:14:09.815Z,61.52
2023-03-27T10:15:09.814Z,62.44
2023-03-27T10:16:09.834Z,62.10
2023-03-27T10:17:09.788Z,61.69
2023-03-27T10:18:09.827Z,61.49
2023-03-27T10:19:09.769Z,61.28
2023-03-27T10:20:09.768Z,61.90
2023-03-27T10:21:09.727Z,61.90
2023-03-27T10:22:09.729Z,61.18
2023-03-27T10:23:09.743Z,61.38
2023-03-27T10:24:09.727Z,60.69
2023-03-27T10:25:09.696Z,60.17
2023-03-27T10:26:09.732Z,60.07
2023-03-27T10:27:09.687Z,60.89
2023-03-27T10:28:09.661Z,59.45
2023-03-27T10:29:09.641Z,59.45
2023-03-27T10:30:09.658Z,58.73
2023-03-27T10:31:09.672Z,58.94
2023-03-27T10:32:09.743Z,60.07
2023-03-27T10:33:09.679Z,57.81
2023-03-27T10:34:09.597Z,57.39
2023-03-27T10:35:09.591Z,56.46
2023-03-27T10:36:09.617Z,56.34
2023-03-27T10:37:09.583Z,55.51
2023-03-27T10:38:09.554Z,55.80
2023-03-27T10:39:09.555Z,56.72
2023-03-27T10:40:09.557Z,57.24
2023-03-27T10:41:09.510Z,57.42
2023-03-27T10:42:09.519Z,57.82
2023-03-27T10:43:11.575Z,57.73
2023-03-27T10:44:09.558Z,57.73
2023-03-27T10:45:09.486Z,58.03
2023-03-27T10:46:09.555Z,58.54
2023-03-27T10:47:09.452Z,59.06
2023-03-27T10:48:09.476Z,58.54
2023-03-27T10:49:09.462Z,59.03
2023-03-27T10:50:09.423Z,58.52
2023-03-27T10:51:09.422Z,57.73
2023-03-27T10:52:09.392Z,57.82
2023-03-27T10:53:09.528Z,59.27
2023-03-27T10:54:09.389Z,58.34
2023-03-27T10:55:09.376Z,57.59
2023-03-27T10:56:09.363Z,58.21
2023-03-27T10:57:09.444Z,56.95
2023-03-27T10:58:09.332Z,56.64
2023-03-27T10:59:09.336Z,55.21
2023-03-27T11:00:09.308Z,55.21
2023-03-27T11:01:09.358Z,53.35
2023-03-27T11:02:10.006Z,53.56
2023-03-27T11:03:09.300Z,53.77
2023-03-27T11:04:09.291Z,53.45
2023-03-27T11:05:09.267Z,53.85
2023-03-27T11:06:09.241Z,54.87
2023-03-27T11:07:09.238Z,54.87
2023-03-27T11:08:09.257Z,54.77
2023-03-27T11:09:09.214Z,54.77
2023-03-27T11:10:09.198Z,54.66
2023-03-27T11:11:09.198Z,55.08
2023-03-27T11:12:09.166Z,55.41
2023-03-27T11:13:09.160Z,56.44
2023-03-27T11:14:09.202Z,56.05
2023-03-27T11:15:09.148Z,56.15
2023-03-27T11:16:09.141Z,56.15
2023-03-27T11:17:09.149Z,55.54
2023-03-27T11:18:09.151Z,56.05
2023-03-27T11:19:09.100Z,56.18
2023-03-27T11:20:09.107Z,56.90
2023-03-27T11:21:09.094Z,57.10
2023-03-27T11:22:09.092Z,57.90
2023-03-27T11:23:09.119Z,58.11
2023-03-27T11:24:09.034Z,57.06
2023-03-27T11:25:09.042Z,56.54
2023-03-27T11:26:09.036Z,55.79
2023-03-27T11:27:09.969Z,55.05
2023-03-27T11:28:09.041Z,55.15
2023-03-27T11:29:09.007Z,56.49
2023-03-27T11:30:08.989Z,55.13
2023-03-27T11:31:12.952Z,54.00
2023-03-27T11:32:08.951Z,53.59
2023-03-27T11:33:09.003Z,53.59
2023-03-27T11:34:08.934Z,53.79
2023-03-27T11:35:08.945Z,55.10
2023-03-27T11:36:08.986Z,55.62
2023-03-27T11:37:08.901Z,54.38
2023-03-27T11:38:08.923Z,55.00
2023-03-27T11:39:08.978Z,55.00
2023-03-27T11:40:08.883Z,55.64
2023-03-27T11:41:08.877Z,55.02
2023-03-27T11:42:08.884Z,54.74
2023-03-27T11:43:08.857Z,54.87
2023-03-27T11:44:08.827Z,55.41
2023-03-27T11:45:08.843Z,55.72
2023-03-27T11:46:08.920Z,56.02
2023-03-27T11:47:08.800Z,55.62
2023-03-27T11:48:11.108Z,54.69
2023-03-27T11:49:08.791Z,55.00
2023-03-27T11:50:08.766Z,55.28
2023-03-27T11:51:08.859Z,55.46
2023-03-27T11:52:08.749Z,54.64
2023-03-27T11:53:08.749Z,54.02
2023-03-27T11:54:08.752Z,53.61
2023-03-27T11:55:08.731Z,54.43
2023-03-27T11:56:08.707Z,53.69
2023-03-27T11:57:08.714Z,53.17
2023-03-27T11:58:08.677Z,53.77
2023-03-27T11:59:08.702Z,53.03
2023-03-27T12:00:08.666Z,53.25
2023-03-27T12:01:08.672Z,53.56
2023-03-27T12:02:08.753Z,53.77
2023-03-27T12:03:08.719Z,52.97
2023-03-27T12:04:08.706Z,53.79
2023-03-27T12:05:08.605Z,52.95
2023-03-27T12:06:08.625Z,52.82
2023-03-27T12:07:12.082Z,52.51
2023-03-27T12:08:08.596Z,53.51
2023-03-27T12:09:08.564Z,52.67
2023-03-27T12:10:08.556Z,51.51
2023-03-27T12:11:08.540Z,50.09
2023-03-27T12:12:08.524Z,49.85
2023-03-27T12:13:08.545Z,51.29
2023-03-27T12:14:17.540Z,50.78
2023-03-27T12:15:09.504Z,50.34
2023-03-27T12:16:08.546Z,49.71
2023-03-27T12:17:08.495Z,49.48
2023-03-27T12:18:08.522Z,48.64
2023-03-27T12:19:21.180Z,47.67
2023-03-27T12:20:09.537Z,47.45
2023-03-27T12:21:08.431Z,47.02
2023-03-27T12:22:22.575Z,46.53
2023-03-27T12:23:09.421Z,48.18
2023-03-27T12:24:08.408Z,48.31
2023-03-27T12:25:08.405Z,48.72
2023-03-27T12:26:08.389Z,48.92
2023-03-27T12:27:08.395Z,48.34
2023-03-27T12:28:08.369Z,47.49
2023-03-27T12:29:23.793Z,47.08
2023-03-27T12:30:09.340Z,46.62
2023-03-27T12:31:08.336Z,45.28
2023-03-27T12:32:08.477Z,44.34
2023-03-27T12:33:08.431Z,43.87
2023-03-27T12:34:08.300Z,43.61
2023-03-27T12:35:08.292Z,42.51
2023-03-27T12:36:08.319Z,40.12
2023-03-27T12:37:08.257Z,39.52
2023-03-27T12:38:08.284Z,37.85
2023-03-27T12:39:08.266Z,37.48
2023-03-27T12:40:08.325Z,35.95
2023-03-27T12:41:08.222Z,35.55
2023-03-27T12:42:08.216Z,37.24
2023-03-27T12:43:08.188Z,38.15
2023-03-27T12:44:08.189Z,39.14
2023-03-27T12:45:08.238Z,38.92
2023-03-27T12:46:08.181Z,37.97
2023-03-27T12:47:09.168Z,37.73
2023-03-27T12:48:08.174Z,38.04
2023-03-27T12:49:08.173Z,38.75
2023-03-27T12:50:08.112Z,38.42
2023-03-27T12:51:08.136Z,39.15
2023-03-27T12:52:08.098Z,39.23
2023-03-27T12:53:08.092Z,38.26